Latest Weather Observations for Hindmarsh Island

IDS60901

Issued at 4:11 pm CST Monday 31 August 2015 (issued every 10 minutes, with the page automatically refreshed every 10 minutes)

About weather observations | Map of Adelaide area stations | Latest observations for Adelaide area | Other Formats
Station Details ID: 023894 Name: HINDMARSH ISLAND AWS Lat: -35.52 Lon: 138.82 Height: 11.0 m
Data from the previous 72 hours. | See also: Recent months at Hindmarsh Island
Date/Time
CST
Tmp

°C
App
Tmp
°C
Dew
Point
°C
Rel
Hum
%
Delta-T

°C
Wind Press
QNH
hPa
Press
MSL
hPa
Rain
since
9 am
mm
Dir
 
Spd
km/h
Gust
km/h
Spd
kts
Gust
kts
31/04:00pm 15.9 12.2 6.3 53 4.7 SE 15 17 8 9 1017.1 - 0.0
31/03:30pm 16.1 12.4 6.3 52 4.8 SE 15 17 8 9 1017.2 - 0.0
31/03:00pm 16.3 12.8 5.3 48 5.2 SE 13 15 7 8 1017.6 1017.6 0.0
31/02:30pm 16.9 13.1 5.8 48 5.4 SSE 15 17 8 9 1017.7 - 0.0
31/02:00pm 17.4 13.5 5.4 45 5.8 SSE 15 17 8 9 1018.0 - 0.0
31/01:30pm 17.1 13.7 5.7 47 5.5 SSE 13 15 7 8 1018.3 - 0.0
31/01:00pm 16.9 13.5 3.9 42 6.1 S 11 13 6 7 1018.8 - 0.0
31/12:30pm 16.6 14.1 6.7 52 4.9 SSE 9 13 5 7 1019.2 - 0.0
31/12:00pm 16.2 13.3 6.3 52 4.8 SE 11 13 6 7 1019.6 1019.6 0.0
31/11:30am 16.0 14.0 7.0 55 4.4 ESE 7 13 4 7 1020.1 - 0.0
31/11:00am 14.7 11.8 4.4 50 4.8 NNE 9 15 5 8 1020.5 - 0.0
31/10:30am 13.4 10.0 5.8 60 3.6 NNE 13 15 7 8 1020.8 - 0.0
31/10:00am 11.6 7.0 5.5 66 2.8 NE 19 22 10 12 1020.9 - 0.0
31/09:30am 9.7 4.7 4.7 71 2.2 NNE 20 26 11 14 1021.1 - 0.0
31/09:00am 8.5 4.1 4.9 78 1.6 NNE 17 20 9 11 1021.1 1021.2 0.0
31/08:30am 7.4 3.3 4.5 82 1.3 NNE 15 19 8 10 1021.2 - 0.0
31/08:00am 6.5 3.2 4.3 86 0.9 NNE 11 15 6 8 1021.3 - 0.0
31/07:30am 4.7 2.0 2.9 88 0.7 N 6 9 3 5 1021.3 - 0.0
31/07:00am 3.6 0.6 2.0 89 0.6 NNE 7 9 4 5 1021.2 - 0.0
31/06:30am 3.0 0.9 1.4 89 0.6 NNE 2 9 1 5 1021.1 - 0.0
31/06:00am 2.8 -0.1 1.2 89 0.6 ENE 6 9 3 5 1021.3 1021.3 0.0
31/05:30am 3.4 0.5 1.6 88 0.7 ENE 6 7 3 4 1021.2 - 0.0
31/05:00am 3.5 0.6 1.7 88 0.7 NNE 6 9 3 5 1021.3 - 0.0
31/04:30am 3.7 0.8 1.7 87 0.8 NE 6 9 3 5 1021.1 - 0.0
31/04:00am 4.9 3.4 2.9 87 0.8 CALM 0 0 0 0 1021.3 - 0.0
31/03:30am 4.8 3.3 2.8 87 0.8 CALM 0 4 0 2 1021.4 - 0.0
31/03:00am 5.7 3.2 3.5 86 0.9 NNE 6 7 3 4 1021.7 1021.7 0.0
31/02:30am 5.6 3.0 3.3 85 1.0 N 6 7 3 4 1021.9 - 0.0
31/02:00am 5.6 2.4 3.3 85 1.0 N 9 11 5 6 1022.2 - 0.0
31/01:30am 6.0 2.5 3.5 84 1.0 N 11 13 6 7 1022.6 - 0.0
31/01:00am 6.3 3.2 3.8 84 1.1 NNW 9 11 5 6 1023.0 - 0.0
31/12:30am 6.6 3.6 4.1 84 1.1 NNW 9 11 5 6 1022.8 - 0.0
31/12:00am 6.9 4.0 4.4 84 1.1 N 9 11 5 6 1022.9 1023.0 0.0
 
Date/Time
CST
Tmp

°C
App
Tmp
°C
Dew
Point
°C
Rel
Hum
%
Delta-T

°C
Wind Press
QNH
hPa
Press
MSL
hPa
Rain
since
9 am
mm
Dir
 
Spd
km/h
Gust
km/h
Spd
kts
Gust
kts
30/11:30pm 7.1 3.8 4.6 84 1.1 N 11 13 6 7 1023.1 - 0.0
30/11:00pm 7.3 4.0 4.6 83 1.2 N 11 13 6 7 1023.4 - 0.0
30/10:30pm 7.4 3.7 4.5 82 1.3 NNE 13 17 7 9 1023.7 - 0.0
30/10:00pm 7.7 4.4 4.7 81 1.3 NNE 11 15 6 8 1023.8 - 0.0
30/09:30pm 7.6 3.4 4.0 78 1.6 NE 15 17 8 9 1023.9 - 0.0
30/09:00pm 8.4 5.5 4.6 77 1.7 NNE 9 13 5 7 1024.0 1024.0 0.0
30/08:30pm 7.9 4.1 4.1 77 1.6 ENE 13 15 7 8 1023.9 - 0.0
30/08:00pm 8.1 4.0 4.1 76 1.7 E 15 17 8 9 1023.7 - 0.0
30/07:30pm 9.3 5.6 4.5 72 2.1 ESE 13 15 7 8 1023.7 - 0.0
30/07:00pm 10.1 6.5 4.9 70 2.3 ESE 13 19 7 10 1023.6 - 0.0
30/06:30pm 11.4 6.9 6.1 70 2.5 SE 19 22 10 12 1023.5 - 0.0
30/06:00pm 11.3 6.6 6.0 70 2.5 SE 20 22 11 12 1023.3 1023.3 0.0
30/05:30pm 11.7 6.6 6.2 69 2.6 SE 22 24 12 13 1023.1 - 0.0
30/05:00pm 12.0 6.8 5.6 65 3.0 SE 22 24 12 13 1023.0 - 0.0
30/04:30pm 12.5 7.1 6.3 66 2.9 SE 24 28 13 15 1022.9 - 0.0
30/04:00pm 13.2 8.0 5.4 59 3.6 SE 22 26 12 14 1023.0 - 0.0
30/03:30pm 14.1 9.9 3.6 49 4.8 E 15 20 8 11 1023.1 - 0.0
30/03:00pm 14.7 9.7 3.8 48 5.0 E 19 28 10 15 1023.3 1023.3 0.0
30/02:30pm 14.3 9.9 2.9 46 5.1 NNE 15 20 8 11 1023.6 - 0.0
30/02:00pm 14.9 11.7 5.1 52 4.6 NE 11 19 6 10 1024.0 - 0.0
30/01:30pm 15.0 10.9 4.4 49 4.9 ENE 15 20 8 11 1024.3 - 0.0
30/01:00pm 14.2 10.2 5.0 54 4.3 NE 15 22 8 12 1024.9 - 0.0
30/12:30pm 14.0 10.2 5.9 58 3.8 NE 15 22 8 12 1025.4 - 0.0
30/12:00pm 13.0 8.8 5.7 61 3.4 NE 17 22 9 12 1026.0 1026.0 0.0
30/11:30am 13.0 8.8 5.7 61 3.4 NE 17 24 9 13 1026.3 - 0.0
30/11:00am 11.7 6.9 4.9 63 3.1 ENE 19 26 10 14 1026.7 - 0.0
30/10:30am 11.3 6.5 4.7 64 3.0 ENE 19 24 10 13 1027.0 - 0.0
30/10:00am 10.5 5.5 4.6 67 2.6 NNE 20 26 11 14 1027.2 - 0.0
30/09:30am 9.6 4.5 4.2 69 2.4 NNE 20 28 11 15 1027.5 - 0.0
30/09:00am 8.5 3.3 3.6 71 2.1 NNE 20 28 11 15 1027.4 1027.4 0.0
30/08:30am 7.7 2.6 3.0 72 2.0 NNE 19 24 10 13 1027.5 - 0.0
30/08:00am 7.4 3.2 3.6 77 1.6 NE 15 19 8 10 1027.6 - 0.0
30/07:30am 6.5 2.6 3.5 81 1.3 NNE 13 17 7 9 1027.5 - 0.0
30/07:00am 5.3 0.9 2.5 82 1.1 NNE 15 17 8 9 1027.3 - 0.0
30/06:30am 4.8 0.2 1.8 81 1.2 NNE 15 17 8 9 1027.1 - 0.0
30/06:00am 5.0 0.8 1.8 80 1.3 NNE 13 17 7 9 1026.8 1026.8 0.0
30/05:30am 5.4 1.3 2.1 79 1.3 N 13 17 7 9 1026.6 - 0.0
30/05:00am 5.4 0.5 2.2 80 1.3 NNE 17 20 9 11 1026.5 - 0.0
30/04:30am 5.4 0.9 2.2 80 1.3 N 15 20 8 11 1026.4 - 0.0
30/04:00am 5.7 1.6 2.5 80 1.3 N 13 19 7 10 1026.6 - 0.0
30/03:30am 5.8 2.1 2.6 80 1.3 N 11 15 6 8 1026.8 - 0.0
30/03:00am 6.1 2.6 3.3 82 1.2 N 11 13 6 7 1027.0 1027.0 0.0
30/02:30am 6.0 2.4 3.0 81 1.2 NNE 11 13 6 7 1027.3 - 0.0
30/02:00am 5.7 0.5 2.7 81 1.2 ENE 19 22 10 12 1027.5 - 0.0
30/01:30am 5.8 1.8 3.0 82 1.2 NE 13 19 7 10 1027.8 - 0.0
30/01:00am 5.9 1.1 2.7 80 1.3 ENE 17 20 9 11 1028.0 - 0.0
30/12:30am 6.6 3.0 3.0 78 1.5 NE 11 15 6 8 1028.0 - 0.0
30/12:00am 6.1 2.4 2.6 78 1.4 NE 11 17 6 9 1028.1 1028.1 0.0
 
Date/Time
CST
Tmp

°C
App
Tmp
°C
Dew
Point
°C
Rel
Hum
%
Delta-T

°C
Wind Press
QNH
hPa
Press
MSL
hPa
Rain
since
9 am
mm
Dir
 
Spd
km/h
Gust
km/h
Spd
kts
Gust
kts
29/11:30pm 5.6 0.1 1.9 77 1.5 E 20 24 11 13 1027.9 - 0.0
29/11:00pm 6.4 1.6 2.7 77 1.5 E 17 22 9 12 1028.0 - 0.0
29/10:30pm 6.2 1.3 1.9 74 1.7 E 17 19 9 10 1028.2 - 0.0
29/10:00pm 7.7 2.4 3.0 72 2.0 ESE 20 26 11 14 1028.1 - 0.0
29/09:30pm 8.1 3.8 3.0 70 2.2 E 15 19 8 10 1028.2 - 0.0
29/09:00pm 8.9 4.2 3.3 68 2.4 E 17 24 9 13 1028.2 1028.2 0.0
29/08:30pm 9.0 4.7 3.2 67 2.5 E 15 19 8 10 1028.1 - 0.0
29/08:00pm 10.6 4.0 4.3 65 2.8 SE 28 32 15 17 1027.8 - 0.0
29/07:30pm 8.7 3.6 2.9 67 2.5 E 19 22 10 12 1027.9 - 0.0
29/07:00pm 8.7 3.9 2.7 66 2.5 E 17 20 9 11 1027.8 - 0.0
29/06:30pm 10.5 5.0 3.8 63 3.0 SE 22 24 12 13 1027.6 - 0.0
29/06:00pm 10.5 4.9 3.5 62 3.0 SE 22 26 12 14 1027.4 1027.3 0.0
29/05:30pm 10.5 4.1 3.1 60 3.2 SE 26 32 14 17 1027.2 - 0.0
29/05:00pm 10.7 3.9 3.3 60 3.2 SE 28 33 15 18 1027.0 - 0.0
29/04:30pm 11.2 4.9 4.0 61 3.2 SE 26 32 14 17 1027.1 - 0.0
29/04:00pm 11.4 5.0 3.2 57 3.6 SE 26 30 14 16 1027.0 - 0.0
29/03:30pm 11.7 6.0 2.7 54 3.9 SE 22 30 12 16 1027.1 - 0.0
29/03:00pm 11.7 6.0 3.0 55 3.8 SSE 22 28 12 15 1027.4 1027.4 0.0
29/02:30pm 11.8 5.9 3.8 58 3.6 SSE 24 28 13 15 1027.7 - 0.0
29/02:00pm 10.6 5.1 4.1 64 2.9 SSE 22 28 12 15 1027.7 - 0.0
29/01:30pm 10.7 5.3 4.4 65 2.8 SSE 22 26 12 14 1027.8 - 0.0
29/01:00pm 11.1 6.3 5.6 69 2.5 SSE 20 26 11 14 1028.2 - 0.0
29/12:30pm 11.8 8.3 3.6 57 3.6 SE 11 19 6 10 1028.7 - 0.0
29/12:00pm 11.6 8.1 3.6 58 3.5 ESE 11 17 6 9 1029.0 1029.0 0.0
29/11:30am 11.9 9.2 5.5 65 3.0 ESE 9 15 5 8 1029.5 - 0.0
29/11:00am 11.1 7.4 4.3 63 3.0 E 13 20 7 11 1029.7 - 0.0
29/10:30am 11.4 7.4 4.8 64 3.0 ENE 15 22 8 12 1029.9 - 0.0
29/10:00am 10.9 5.7 3.5 60 3.3 E 20 28 11 15 1029.8 - 0.0
29/09:30am 10.7 5.6 4.0 63 3.0 E 20 28 11 15 1029.8 - 0.0
29/09:00am 9.5 3.1 3.3 65 2.7 E 26 33 14 18 1029.8 1029.8 0.0
29/08:30am 8.9 3.0 3.7 70 2.3 E 24 30 13 16 1029.8 - 0.0
29/08:00am 8.1 3.0 4.3 77 1.7 E 20 26 11 14 1029.4 - 0.0
29/07:30am 7.0 3.3 4.5 84 1.1 E 13 15 7 8 1029.0 - 0.0
29/07:00am 6.0 1.8 3.7 85 1.0 E 15 19 8 10 1028.7 - 0.0
29/06:30am 6.7 2.2 4.2 84 1.1 ESE 17 22 9 12 1028.4 - 0.0
29/06:00am 7.9 3.1 5.4 84 1.1 ESE 20 26 11 14 1027.9 1027.9 0.0
29/05:30am 8.9 4.5 6.5 85 1.1 ESE 19 24 10 13 1027.7 - 0.0
29/05:00am 9.9 4.3 7.3 84 1.2 SE 26 30 14 16 1027.5 - 0.0
29/04:30am 10.4 6.1 7.8 84 1.3 SE 20 24 11 13 1027.3 - 0.0
29/04:00am 10.2 7.5 7.4 83 1.3 E 11 15 6 8 1027.4 - 0.0
29/03:30am 10.8 6.7 8.0 83 1.4 SE 19 26 10 14 1027.4 - 0.0
29/03:00am 10.9 7.2 7.8 81 1.5 SE 17 20 9 11 1027.5 1027.5 0.0
29/02:30am 10.6 8.4 7.8 83 1.4 WSW 9 13 5 7 1027.8 - 0.0
29/02:00am 10.4 7.4 7.8 84 1.3 W 13 17 7 9 1028.0 - 0.0
29/01:30am 10.6 7.2 7.7 82 1.4 WSW 15 19 8 10 1028.2 - 0.0
29/01:00am 10.4 7.8 7.8 84 1.3 SW 11 20 6 11 1028.4 - 0.0
29/12:30am 10.3 7.3 7.5 83 1.3 SSW 13 15 7 8 1028.3 - 0.0
29/12:00am 10.4 6.9 7.3 81 1.5 SSW 15 17 8 9 1028.3 1028.2 0.0
 
Date/Time
CST
Tmp

°C
App
Tmp
°C
Dew
Point
°C
Rel
Hum
%
Delta-T

°C
Wind Press
QNH
hPa
Press
MSL
hPa
Rain
since
9 am
mm
Dir
 
Spd
km/h
Gust
km/h
Spd
kts
Gust
kts
28/11:30pm 10.9 7.5 7.6 80 1.6 SSW 15 17 8 9 1028.3 - 0.0
28/11:00pm 10.8 6.3 7.1 78 1.8 S 20 24 11 13 1028.4 - 0.0
28/10:30pm 11.1 6.5 8.3 83 1.4 S 22 26 12 14 1028.5 - 0.0
28/10:00pm 11.5 6.1 8.0 79 1.7 S 26 30 14 16 1028.5 - 0.0
28/09:30pm 11.9 7.7 8.4 79 1.7 S 20 26 11 14 1028.4 - 0.0
28/09:00pm 11.8 7.5 7.1 73 2.2 S 19 20 10 11 1028.5 1028.6 0.0
28/08:30pm 11.7 7.8 7.2 74 2.2 S 17 20 9 11 1028.4 - 0.0
28/08:00pm 11.9 7.9 6.6 70 2.5 S 17 20 9 11 1028.3 - 0.0
28/07:30pm 11.8 7.7 6.1 68 2.7 S 17 20 9 11 1028.2 - 0.0
28/07:00pm 11.9 7.8 6.2 68 2.7 S 17 19 9 10 1028.1 - 0.0
28/06:30pm 11.7 8.2 5.6 66 2.8 S 13 15 7 8 1027.9 - 0.0
28/06:00pm 11.8 7.5 5.2 64 3.0 S 17 20 9 11 1027.7 1027.7 0.0
28/05:30pm 11.8 7.1 5.2 64 3.0 S 19 20 10 11 1027.6 - 0.0
28/05:00pm 12.0 7.1 4.0 58 3.6 SSW 19 20 10 11 1027.6 - 0.0
28/04:30pm 12.3 7.9 4.5 59 3.5 S 17 20 9 11 1027.6 - 0.0

Latest Capital City Observations: Canberra | Sydney | Melbourne | Brisbane | Adelaide | Perth | Hobart | Darwin

Other Formats:

Comma delimited format used in spreadsheet applications
http://www.bom.gov.au/fwo/IDS60901/IDS60901.94677.axf

JavaScript Object Notation format (JSON) in row-major order
http://www.bom.gov.au/fwo/IDS60901/IDS60901.94677.json